Terminal Aerodrome Forecast
Issued by NWS Hastings, NE

Home | Current Version | Previous Version | Text Only | Print | Product List | Glossary On
Versions: 1 2 3 4 5 6 7 8 9 10 11 12 13 14 15 16 17 18 19 20 21 22
000
FTUS45 KGID 240520
TAFEAR
TAF
KEAR 240520Z 2406/2506 09010KT P6SM SCT003 BKN005
     FM240900 12008KT 3SM BR BKN005
     FM241300 13008KT P6SM VCSH BKN003 OVC015
     FM241900 14010KT P6SM VCTS SCT015CB BKN025
      AMD LTD TO CLD VIS AND WIND=

USA.gov is the U.S. government's official web portal to all federal, state and local government web resources and services.